Fritch, TX

8:09 AM CDT on October 24, 2014 (GMT -0500)
Perry Lefors | Change Station
CLOSE
Current Station
Airport
Location: Pampa,
Elevation: 3245 ft
Nearby Weather Stations
Active Advisory: Special Statement

Elev 3245 ft 35.61 °N, 101.00 °W | Updated 14 minutes ago

Clear
Clear
52 °F
Feels Like 52 °F
N
0
Wind Variable Wind from North

Today
High -- | Low -- °F
--% Chance of Precip.
Yesterday
High -- | Low -- °F
Precip. -- in
8:00 AM 6:59 PM
New Moon, 0% visible
Pressure 30.12 in
Visibility 10.0 miles
Clouds Clear
Dew Point 50 °F
Humidity 92%
Rainfall 0.00 in
Snow Depth Not available.
UV 0 out of 12
Pollen 6.30 out of 12
Air Quality Not available.
Flu Activity Sporadic
METAR KPPA 241255Z AUTO 00000KT 10SM CLR 11/10 A3012 RMK AO2 T01100097 PNO

More Conditions Fewer Conditions

Pressure 30.12 in
Visibility 10.0 miles
Clouds Clear
Dew Point 50 °F
Humidity 92%
Rainfall 0.00 in
Snow Depth Not available.
UV 0 out of 12
Pollen 6.30 out of 12
Air Quality Not available.
Flu Activity Sporadic
METAR KPPA 241255Z AUTO 00000KT 10SM CLR 11/10 A3012 RMK AO2 T01100097 PNO

More Conditions Fewer Conditions

10-Day Weather Forecast

Almanac

Astronomy

Oct. 24, 2014 Rise Set
Actual Time 8:00 AM CDT 6:59 PM CDT
Civil Twilight 7:34 AM CDT 7:25 PM CDT
Nautical Twilight 7:04 AM CDT 7:55 PM CDT
Astronomical Twilight 6:35 AM CDT 8:25 PM CDT
Moon 8:40 AM CDT 7:42 PM CDT
Length of Visible Light 11h 50m
Length of Day
10h 58m
Tomorrow will be 2m 4s shorter.
New Moon, 0% of the Moon is Illuminated
Today
New Moon
Oct 30
First Quarter
Nov 6
Full
Nov 14
Last Quarter
Nov 22
New

Today's Extremes

State Highs State Lows

Community

WunderPhotos

Upload Photos

1,764,543 photos uploaded!

Nearby

Snow Depth

Station Depth Elevation
No new snow has been reported.

Earthquake Activity

City Distance Mag. Time & Date
No recent earthquake activity has been reported nearby.
Minimum magnitude displayed is 2.5.

Coastal Water Temperatures

Place Temperature
No Stations Reporting

Nearby Weather Stations